カンザスシティ の空港の天気 - METARとTAF

カンザスシティ国際空港 ( KMCI / MCI ) - アメリカ ミズーリ州カンザスシティ
飛行場実況気象(Metar)
観測時間05/25 18:53 CDT (05/25 23:53 UTC)
風向・風速北 2m/s
視程10km以上
天気現象
全天の4割程度の雲 雲底高度 400m
全天の8割程度の雲 雲底高度 3050m
気温22.8℃
湿度79%
気圧1009.1hPa
METARKMCI 252353Z 35003KT 10SM SCT013 BKN100 23/19 A2983 RMK AO2 SLP091 CB DSNT N-SE 60004 T02280189 10272 20211 50005 $
過去の天気等 Google飛行場航空写真 Wunderground天気予報

過去48時間のMETAR

飛行場予報(TAF)
発表時間: 5/25 18:51 CDT (5/25 23:51 UTC)
予報対象時間: 25日19時 CDT ~ 26日19時 CDT
風向・風速北西 4m/s
視程10km以上
天気現象周辺でしゅう雨
全天の4割程度の雲 雲底高度 210m
全天の4割程度の雲 雲底高度 1070m
全天の8割程度の雲 雲底高度 2130m
25日20時 CDT から
風向・風速静穏
視程10km以上
全天を覆う雲 雲底高度 2130m
26日2時 CDT から
風向・風速静穏
視程10km以上
天気現象しゅう雨
全天を覆う雲 雲底高度 460m
26日3時 CDT ~ 26日7時 CDT に一時的に
視程3220m
天気現象弱い雷雨
全天を覆う積乱雲 雲底高度 300m
26日7時 CDT から
風向・風速静穏
視程10km以上
天気現象周辺でしゅう雨
全天を覆う雲 雲底高度 460m
26日7時 CDT ~ 26日11時 CDT に一時的に
視程8050m
天気現象弱い雷雨
全天を覆う積乱雲 雲底高度 300m
KMCI 252351Z 2600/2624 32007KT P6SM VCSH SCT007 SCT035 BKN070
FM260100 00000KT P6SM OVC070
FM260700 00000KT P6SM SHRA OVC015
TEMPO 2608/2612 2SM -TSRA OVC010CB
FM261200 00000KT P6SM VCSH OVC015
TEMPO 2612/2616 5SM -TSRA OVC010CB